Time;durP1;ratioP1;P1;durP2;ratioP2;P2;SDS_P1;SDS_P2;PMS_P1;PMS_P2;Temp;Humidity;BMP_temperature;BMP_pressure;BME280_temperature;BME280_humidity;BME280_pressure;Samples;Min_cycle;Max_cycle;Signal;HPM_P1;HPM_P2
2023/06/01 00:00:45;;;;;;;;;6.33;6.33;;;;;25.98;36.36;101874.25;6305104;22;45301;-73
2023/06/01 00:03:10;;;;;;;;;9.00;7.50;;;;;26.00;36.16;101866.88;6304687;22;45223;-73
2023/06/01 00:05:36;;;;;;;;;9.33;6.00;;;;;25.98;35.90;101878.75;6305294;22;46061;-73
2023/06/01 00:08:04;;;;;;;;;10.67;7.33;;;;;25.94;36.56;101873.75;6302753;22;45246;-73
2023/06/01 00:10:29;;;;;;;;;7.00;6.33;;;;;25.96;36.36;101879.78;6304750;22;45288;-73
2023/06/01 00:12:55;;;;;;;;;11.00;6.50;;;;;26.00;36.27;101887.38;6305241;22;45391;-73
2023/06/01 00:15:20;;;;;;;;;9.00;8.00;;;;;25.95;36.57;101875.44;6304006;22;48325;-73
2023/06/01 00:17:46;;;;;;;;;9.33;8.33;;;;;25.98;36.53;101881.41;6304332;22;45316;-73
2023/06/01 00:20:11;;;;;;;;;9.33;8.33;;;;;25.93;36.36;101880.13;6304696;22;45333;-73
2023/06/01 00:22:39;;;;;;;;;8.67;8.00;;;;;25.96;36.62;101897.59;6304818;22;45303;-73
2023/06/01 00:25:08;;;;;;;;;10.00;8.00;;;;;25.92;36.47;101880.28;6304860;22;45303;-73
2023/06/01 00:27:34;;;;;;;;;11.75;8.00;;;;;25.94;36.43;101884.44;6304952;22;45289;-73
2023/06/01 00:30:00;;;;;;;;;10.50;9.50;;;;;25.90;36.35;101883.16;6302577;22;45341;-73
2023/06/01 00:32:25;;;;;;;;;9.67;8.67;;;;;25.92;36.33;101886.47;6305234;22;45409;-73
2023/06/01 00:34:50;;;;;;;;;9.00;8.33;;;;;25.89;36.10;101892.19;6305066;22;45924;-74
2023/06/01 00:37:16;;;;;;;;;12.00;10.33;;;;;25.85;35.95;101888.19;6304438;22;45265;-73
2023/06/01 00:39:41;;;;;;;;;10.67;10.67;;;;;25.87;36.48;101898.69;6304577;22;45389;-73
2023/06/01 00:42:07;;;;;;;;;9.50;9.50;;;;;25.90;36.28;101906.31;6304338;22;45270;-73
2023/06/01 00:44:32;;;;;;;;;14.33;11.67;;;;;25.91;36.45;101902.66;6304367;22;45572;-73
2023/06/01 00:46:59;;;;;;;;;11.67;9.67;;;;;25.88;36.23;101903.84;6304213;22;45541;-72
2023/06/01 00:49:25;;;;;;;;;9.75;9.75;;;;;25.86;36.33;101895.19;6304558;22;45341;-73
2023/06/01 00:51:51;;;;;;;;;6.00;5.25;;;;;25.77;36.37;101886.44;6304473;22;45270;-73
2023/06/01 00:54:17;;;;;;;;;8.25;8.25;;;;;25.84;36.21;101906.03;6304366;22;46258;-73
2023/06/01 00:56:42;;;;;;;;;11.50;11.25;;;;;25.78;36.68;101900.59;6304891;22;45193;-73
2023/06/01 00:59:08;;;;;;;;;12.50;10.75;;;;;25.72;36.20;101889.63;6303770;22;45331;-73
2023/06/01 01:01:33;;;;;;;;;13.50;8.50;;;;;25.71;36.18;101887.94;6304541;22;45216;-73
2023/06/01 01:04:00;;;;;;;;;12.00;11.00;;;;;25.82;36.26;101910.72;6304693;22;46410;-73
2023/06/01 01:06:41;;;;;;;;;11.25;10.75;;;;;25.80;36.34;101906.56;6304337;22;45378;-73
2023/06/01 01:09:28;;;;;;;;;12.25;10.50;;;;;25.78;36.01;101906.75;6304275;22;45170;-74
2023/06/01 01:12:00;;;;;;;;;12.25;10.25;;;;;25.74;36.44;101916.94;6304460;22;45185;-73
2023/06/01 01:14:43;;;;;;;;;10.33;9.33;;;;;25.66;36.16;101903.66;6304020;22;47296;-73
2023/06/01 01:17:15;;;;;;;;;10.75;10.00;;;;;25.74;36.94;101919.59;6304106;22;45353;-74
2023/06/01 01:19:59;;;;;;;;;9.33;9.00;;;;;25.73;36.17;101917.09;6304487;22;45283;-73
2023/06/01 01:22:34;;;;;;;;;12.50;11.50;;;;;25.69;36.14;101905.97;6304229;22;45378;-73
2023/06/01 01:25:05;;;;;;;;;10.67;9.00;;;;;25.71;36.37;101909.28;6303710;22;45520;-73
2023/06/01 01:27:49;;;;;;;;;15.00;11.50;;;;;25.65;36.12;101903.84;6303771;22;45357;-74
2023/06/01 01:30:21;;;;;;;;;12.00;10.25;;;;;25.67;36.55;101910.66;6304288;22;45327;-73
2023/06/01 01:32:48;;;;;;;;;13.25;12.25;;;;;25.69;36.39;101913.97;6304812;22;45322;-74
2023/06/01 01:35:14;;;;;;;;;14.75;12.75;;;;;25.53;35.94;101890.94;6304095;22;47129;-73
2023/06/01 01:37:53;;;;;;;;;14.00;11.00;;;;;25.62;36.72;101913.84;6304118;22;45230;-73
2023/06/01 01:40:19;;;;;;;;;12.25;10.50;;;;;25.66;36.32;101914.31;6304405;22;45380;-73
2023/06/01 01:42:45;;;;;;;;;10.25;8.50;;;;;25.65;36.40;101918.00;6304399;22;45324;-73
2023/06/01 01:45:11;;;;;;;;;13.00;12.50;;;;;25.59;36.41;101905.38;6303878;22;46008;-73
2023/06/01 01:47:48;;;;;;;;;16.50;11.25;;;;;25.62;36.45;101915.69;6304605;22;45335;-73
2023/06/01 01:50:17;;;;;;;;;15.25;12.50;;;;;25.57;36.41;101902.06;6304076;22;45321;-73
2023/06/01 01:52:45;;;;;;;;;13.00;10.75;;;;;25.51;36.35;101893.78;6304082;22;45142;-73
2023/06/01 01:55:12;;;;;;;;;14.25;12.25;;;;;25.54;36.42;101905.09;6303331;22;45452;-75
2023/06/01 01:57:39;;;;;;;;;12.75;11.75;;;;;25.55;36.40;101909.41;6304247;22;45242;-73
2023/06/01 02:00:07;;;;;;;;;13.00;13.00;;;;;25.52;36.04;101905.28;6304602;22;45224;-74
2023/06/01 02:02:33;;;;;;;;;12.50;12.50;;;;;25.47;36.31;101897.81;6303831;22;45215;-73
2023/06/01 02:04:58;;;;;;;;;13.75;13.00;;;;;25.53;36.61;101912.25;6304215;22;46594;-73
2023/06/01 02:07:24;;;;;;;;;14.75;14.00;;;;;25.50;36.39;101909.97;6303828;22;45154;-73
2023/06/01 02:09:49;;;;;;;;;16.50;13.75;;;;;25.49;36.23;101900.28;6303816;22;45225;-73
2023/06/01 02:12:15;;;;;;;;;17.50;15.75;;;;;25.48;36.45;101901.28;6302335;22;45347;-74
2023/06/01 02:14:40;;;;;;;;;15.25;13.50;;;;;25.52;36.18;101905.28;6304833;22;47199;-73
2023/06/01 02:17:07;;;;;;;;;15.75;15.75;;;;;25.47;36.30;101897.81;6305179;22;45331;-74
2023/06/01 02:19:33;;;;;;;;;12.75;12.75;;;;;25.46;36.31;101898.81;6305712;22;45554;-73
2023/06/01 02:21:58;;;;;;;;;15.25;13.75;;;;;25.43;36.63;101890.34;6305151;22;45261;-73
2023/06/01 02:24:23;;;;;;;;;15.50;14.25;;;;;25.42;36.55;101886.88;6304482;22;46371;-73
2023/06/01 02:26:51;;;;;;;;;16.25;15.25;;;;;25.38;36.56;101885.56;6305225;22;45395;-74
2023/06/01 02:29:19;;;;;;;;;16.75;12.25;;;;;25.45;36.65;101896.34;6305518;22;45379;-73
2023/06/01 02:31:45;;;;;;;;;15.00;13.25;;;;;25.43;36.60;101887.69;6305066;22;45334;-73
2023/06/01 02:34:10;;;;;;;;;14.75;13.75;;;;;25.37;36.60;101878.59;6304615;22;47068;-73
2023/06/01 02:36:35;;;;;;;;;12.50;10.00;;;;;25.38;36.41;101889.06;6303457;22;45339;-73
2023/06/01 02:39:01;;;;;;;;;20.75;14.75;;;;;25.36;36.51;101888.41;6304778;22;45263;-73
2023/06/01 02:41:26;;;;;;;;;13.50;12.50;;;;;25.38;36.63;101893.53;6303655;22;45311;-73
2023/06/01 02:43:51;;;;;;;;;14.25;13.50;;;;;25.34;36.38;101886.94;6305284;22;45995;-73
2023/06/01 02:46:20;;;;;;;;;15.50;14.50;;;;;25.36;36.63;101891.06;6305493;22;45295;-73
2023/06/01 02:48:46;;;;;;;;;14.25;13.25;;;;;25.33;36.76;101879.94;6304876;22;45224;-73
2023/06/01 02:51:12;;;;;;;;;13.75;12.25;;;;;25.35;36.54;101881.41;6305365;22;45428;-74
2023/06/01 02:53:40;;;;;;;;;15.25;13.50;;;;;25.37;36.41;101883.91;6304356;22;45340;-73
2023/06/01 02:56:06;;;;;;;;;17.50;14.25;;;;;25.34;36.80;101876.28;6304758;22;45344;-73
2023/06/01 02:58:31;;;;;;;;;15.75;14.75;;;;;25.26;36.77;101866.50;6305563;22;45343;-73
2023/06/01 03:00:59;;;;;;;;;13.50;13.50;;;;;25.26;37.15;101866.50;6305657;22;45352;-74
2023/06/01 03:03:25;;;;;;;;;13.25;13.00;;;;;25.31;36.81;101874.78;6304795;22;46464;-74
2023/06/01 03:05:51;;;;;;;;;16.75;14.25;;;;;25.30;36.87;101873.13;6304633;22;45149;-73
2023/06/01 03:08:16;;;;;;;;;16.75;14.50;;;;;25.35;36.93;101883.25;6304668;22;45409;-73
2023/06/01 03:10:42;;;;;;;;;16.50;13.50;;;;;25.24;37.01;101856.00;6303423;22;45388;-73
2023/06/01 03:13:08;;;;;;;;;14.50;12.75;;;;;25.27;36.56;101865.47;6305104;22;46605;-73
2023/06/01 03:15:33;;;;;;;;;16.25;16.25;;;;;25.26;36.69;101863.84;6305241;22;45208;-73
2023/06/01 03:17:59;;;;;;;;;17.25;14.50;;;;;25.26;37.00;101870.00;6305478;22;45324;-73
2023/06/01 03:20:24;;;;;;;;;15.50;15.50;;;;;25.28;37.19;101883.97;6304937;22;45439;-73
2023/06/01 03:22:50;;;;;;;;;17.75;16.75;;;;;25.28;36.96;101872.47;6304898;22;45316;-74
2023/06/01 03:25:16;;;;;;;;;16.25;15.75;;;;;25.22;36.94;101863.34;6304491;22;45310;-73
2023/06/01 03:27:42;;;;;;;;;16.75;15.00;;;;;25.31;37.35;101874.78;6305280;22;45291;-73
2023/06/01 03:30:11;;;;;;;;;20.50;15.75;;;;;25.29;36.95;101869.63;6304741;22;45438;-74
2023/06/01 03:32:37;;;;;;;;;17.25;13.75;;;;;25.27;36.99;101866.31;6305184;22;45427;-74
2023/06/01 03:35:07;;;;;;;;;18.50;15.50;;;;;25.29;36.83;101869.63;6305092;22;45152;-73
2023/06/01 03:37:33;;;;;;;;;14.25;12.50;;;;;25.23;36.94;101867.69;6304409;22;45335;-74
2023/06/01 03:39:58;;;;;;;;;14.75;14.25;;;;;25.22;37.15;101862.53;6302473;22;45321;-73
2023/06/01 03:42:23;;;;;;;;;12.50;12.50;;;;;25.17;36.96;101855.91;6302492;22;56722;-73
2023/06/01 03:44:49;;;;;;;;;17.00;14.25;;;;;25.23;36.93;101872.19;6305152;22;45331;-73
2023/06/01 03:47:14;;;;;;;;;18.25;17.00;;;;;25.17;37.08;101873.72;6305143;22;45914;-73
2023/06/01 03:49:40;;;;;;;;;20.00;16.75;;;;;25.25;36.98;101881.66;6304697;22;45324;-73
2023/06/01 03:52:06;;;;;;;;;14.50;13.00;;;;;25.24;36.98;101881.84;6303786;22;46648;-74
2023/06/01 03:54:31;;;;;;;;;13.50;13.50;;;;;25.07;37.02;101856.13;6304599;22;45649;-73
2023/06/01 03:56:57;;;;;;;;;19.75;14.75;;;;;25.17;37.09;101863.06;6304575;22;45150;-74
2023/06/01 03:59:22;;;;;;;;;15.50;15.50;;;;;25.18;37.05;101870.06;6304316;22;45518;-73
2023/06/01 04:01:49;;;;;;;;;16.25;13.75;;;;;25.18;37.26;101870.88;6304843;22;45336;-73
2023/06/01 04:04:16;;;;;;;;;18.25;18.25;;;;;25.20;37.29;101872.53;6304583;22;45257;-73
2023/06/01 04:06:44;;;;;;;;;17.50;16.75;;;;;25.07;37.04;101856.13;6304273;22;45402;-73
2023/06/01 04:09:10;;;;;;;;;17.00;15.25;;;;;25.05;37.22;101863.47;6304620;22;45305;-73
2023/06/01 04:11:36;;;;;;;;;21.50;19.75;;;;;25.17;37.19;101868.38;6304771;22;45390;-73
2023/06/01 04:14:02;;;;;;;;;14.50;14.25;;;;;25.15;37.21;101881.88;6304290;22;45841;-73
2023/06/01 04:16:28;;;;;;;;;16.00;13.50;;;;;25.09;36.99;101879.91;6304264;22;45325;-73
2023/06/01 04:18:53;;;;;;;;;20.25;16.75;;;;;25.06;37.13;101877.59;6304832;22;45212;-73
2023/06/01 04:21:22;;;;;;;;;19.25;16.75;;;;;25.11;37.25;101882.41;6303962;22;46352;-73
2023/06/01 04:23:48;;;;;;;;;19.00;15.50;;;;;25.15;36.95;101897.88;6304145;22;45313;-73
2023/06/01 04:26:14;;;;;;;;;18.75;15.25;;;;;25.09;37.08;101882.56;6304756;22;45307;-73
2023/06/01 04:28:43;;;;;;;;;16.50;15.00;;;;;25.15;37.33;101891.69;6304433;22;45500;-73
2023/06/01 04:31:16;;;;;;;;;20.50;16.50;;;;;25.14;36.98;101887.38;6304291;22;46340;-73
2023/06/01 04:33:44;;;;;;;;;13.50;12.75;;;;;25.09;37.23;101879.91;6304185;22;45548;-73
2023/06/01 04:36:12;;;;;;;;;18.50;16.00;;;;;25.05;37.35;101875.97;6303560;22;45303;-74
2023/06/01 04:38:40;;;;;;;;;16.00;15.50;;;;;25.09;36.78;101890.56;6304988;22;45311;-73
2023/06/01 04:41:06;;;;;;;;;16.75;15.50;;;;;25.12;37.35;101892.88;6304037;22;45223;-73
2023/06/01 04:43:32;;;;;;;;;20.25;16.75;;;;;25.07;37.34;101876.59;6304216;22;45265;-73
2023/06/01 04:46:04;;;;;;;;;17.25;15.00;;;;;25.06;37.60;101878.44;6304676;22;45151;-73
2023/06/01 04:48:32;;;;;;;;;16.25;15.00;;;;;25.13;37.56;101889.22;6304372;22;45465;-73
2023/06/01 04:51:01;;;;;;;;;14.00;11.75;;;;;25.17;37.05;101895.84;6304133;22;45405;-73
2023/06/01 04:53:26;;;;;;;;;16.75;14.25;;;;;25.13;37.48;101891.06;6304352;22;45368;-73
2023/06/01 04:55:53;;;;;;;;;19.50;17.25;;;;;25.15;36.98;101891.69;6304798;22;45355;-73
2023/06/01 04:58:19;;;;;;;;;17.00;15.50;;;;;25.18;37.39;101894.03;6304549;22;45339;-73
2023/06/01 05:00:45;;;;;;;;;17.25;15.25;;;;;25.19;36.93;101895.66;6304059;22;46599;-73
2023/06/01 05:03:11;;;;;;;;;20.00;16.25;;;;;25.23;37.07;101894.31;6304485;22;45232;-74
2023/06/01 05:05:36;;;;;;;;;17.50;14.50;;;;;25.19;37.18;101898.31;6302303;22;45261;-73
2023/06/01 05:08:02;;;;;;;;;20.75;18.50;;;;;25.22;37.13;101903.31;6304412;22;45507;-73
2023/06/01 05:10:27;;;;;;;;;17.00;14.25;;;;;25.20;37.22;101878.69;6302809;22;46873;-73
2023/06/01 05:12:52;;;;;;;;;23.75;19.50;;;;;25.12;37.20;101884.06;6302734;22;45638;-73
2023/06/01 05:15:18;;;;;;;;;17.50;15.50;;;;;25.24;37.35;101903.16;6302754;22;45385;-74
2023/06/01 05:17:44;;;;;;;;;18.00;16.50;;;;;25.03;36.94;101876.13;6304255;22;45200;-72
2023/06/01 05:20:11;;;;;;;;;21.25;18.25;;;;;25.22;37.35;101891.81;6303800;22;45276;-73
2023/06/01 05:22:36;;;;;;;;;17.25;16.25;;;;;25.21;37.46;101903.50;6304324;22;45390;-73
2023/06/01 05:25:02;;;;;;;;;16.00;13.00;;;;;25.23;37.24;101904.97;6304545;22;45226;-74
2023/06/01 05:27:28;;;;;;;;;16.75;15.00;;;;;25.20;37.25;101901.81;6304578;22;45269;-74
2023/06/01 05:29:53;;;;;;;;;18.00;14.50;;;;;25.23;37.20;101893.47;6304269;22;45459;-74
2023/06/01 05:32:18;;;;;;;;;14.75;14.25;;;;;25.18;37.37;101902.00;6304674;22;45240;-74
2023/06/01 05:34:44;;;;;;;;;18.50;14.50;;;;;25.18;37.27;101896.69;6303613;22;45367;-74
2023/06/01 05:37:09;;;;;;;;;18.00;13.75;;;;;25.22;37.39;101905.13;6303910;22;45299;-74
2023/06/01 05:39:34;;;;;;;;;19.50;16.00;;;;;25.17;37.37;101903.84;6304525;22;45411;-74
2023/06/01 05:42:00;;;;;;;;;15.00;13.25;;;;;25.13;37.28;101899.03;6304021;22;45231;-73
2023/06/01 05:44:25;;;;;;;;;12.75;12.25;;;;;25.14;37.33;101892.69;6304402;22;45173;-73
2023/06/01 05:46:52;;;;;;;;;18.00;15.75;;;;;25.20;37.26;101897.31;6304377;22;45201;-74
2023/06/01 05:49:18;;;;;;;;;14.00;12.25;;;;;25.18;37.06;101910.00;6303122;22;47122;-73
2023/06/01 05:51:43;;;;;;;;;21.00;14.25;;;;;25.14;37.36;101909.50;6304246;22;45697;-73
2023/06/01 05:54:10;;;;;;;;;17.75;16.25;;;;;25.18;37.09;101912.66;6304040;22;45766;-74
2023/06/01 05:56:37;;;;;;;;;17.75;16.25;;;;;25.14;37.48;101912.16;6303961;22;45356;-73
2023/06/01 05:59:03;;;;;;;;;16.75;14.75;;;;;25.17;37.20;101933.13;6304049;22;47112;-71
2023/06/01 06:01:29;;;;;;;;;19.25;16.00;;;;;25.13;37.35;101915.84;6303719;22;45279;-71
2023/06/01 06:03:55;;;;;;;;;14.25;13.25;;;;;25.02;37.50;101906.44;6303017;22;45461;-74
2023/06/01 06:06:21;;;;;;;;;12.25;12.25;;;;;25.14;37.56;101919.31;6303827;22;45205;-75
2023/06/01 06:08:46;;;;;;;;;19.50;16.50;;;;;25.02;37.00;101897.59;6303349;22;46033;-75
2023/06/01 06:11:11;;;;;;;;;15.25;14.25;;;;;25.02;37.35;101898.44;6303623;22;45221;-78
2023/06/01 06:13:37;;;;;;;;;18.25;15.25;;;;;25.17;37.24;101927.81;6303775;22;45252;-72
2023/06/01 06:16:02;;;;;;;;;18.50;12.50;;;;;25.25;37.57;101920.75;6303557;22;45172;-74
2023/06/01 06:18:28;;;;;;;;;14.75;13.50;;;;;25.29;37.76;101930.88;6303145;22;45704;-72
2023/06/01 06:20:53;;;;;;;;;15.75;13.75;;;;;25.24;37.39;101908.47;6304222;22;45303;-73
2023/06/01 06:23:18;;;;;;;;;15.50;14.25;;;;;25.45;37.62;101929.13;6303571;22;45176;-73
2023/06/01 06:25:45;;;;;;;;;18.50;11.25;;;;;25.49;37.69;101922.44;6303757;22;45481;-72
2023/06/01 06:28:11;;;;;;;;;16.00;13.75;;;;;25.56;37.64;101916.38;6303731;22;45377;-73
2023/06/01 06:30:36;;;;;;;;;13.25;12.00;;;;;25.67;37.76;101923.13;6303369;22;45291;-73
2023/06/01 06:33:01;;;;;;;;;15.25;13.50;;;;;25.74;37.48;101921.44;6303111;22;45272;-72
2023/06/01 06:35:27;;;;;;;;;19.00;15.00;;;;;25.87;37.10;101920.81;6303200;22;45537;-72
2023/06/01 06:37:52;;;;;;;;;21.75;16.75;;;;;26.03;37.76;101929.69;6303961;22;46622;-72
2023/06/01 06:40:18;;;;;;;;;19.50;16.00;;;;;26.09;37.13;101912.97;6304005;22;45363;-71
2023/06/01 06:42:44;;;;;;;;;20.75;14.50;;;;;26.20;37.40;101918.88;6303978;22;45519;-74
2023/06/01 06:45:10;;;;;;;;;26.75;15.00;;;;;26.27;37.54;101919.78;6303616;22;45365;-72
2023/06/01 06:47:36;;;;;;;;;21.00;15.50;;;;;26.36;37.67;101915.19;6292202;22;45526;-73
2023/06/01 06:50:01;;;;;;;;;21.75;16.50;;;;;26.44;36.80;101919.66;6294927;22;45324;-72
2023/06/01 06:52:27;;;;;;;;;18.00;14.25;;;;;26.58;37.10;101924.13;6298686;22;45311;-71
2023/06/01 06:54:52;;;;;;;;;22.75;14.00;;;;;26.68;37.21;101925.69;6299393;22;45493;-73
2023/06/01 06:57:17;;;;;;;;;18.00;13.67;;;;;26.74;37.25;101933.78;6299523;22;46245;-71
2023/06/01 06:59:43;;;;;;;;;17.00;12.50;;;;;26.80;36.87;101934.91;6299715;22;45360;-76
2023/06/01 07:02:08;;;;;;;;;13.50;11.25;;;;;26.81;36.95;101915.19;6300287;22;45172;-73
2023/06/01 07:04:33;;;;;;;;;19.67;12.33;;;;;26.87;36.73;101915.44;6301577;22;45285;-74
2023/06/01 07:07:00;;;;;;;;;17.00;14.50;;;;;26.91;37.37;101922.88;6300608;22;46589;-73
2023/06/01 07:09:26;;;;;;;;;21.00;11.50;;;;;27.02;36.67;101929.59;6301192;22;45739;-74
2023/06/01 07:11:51;;;;;;;;;17.33;14.67;;;;;27.00;37.24;101915.59;6301045;22;45442;-74
2023/06/01 07:14:17;;;;;;;;;19.25;13.25;;;;;27.10;37.04;101919.81;6301072;22;45296;-74
2023/06/01 07:16:42;;;;;;;;;24.25;13.50;;;;;27.15;36.98;101920.94;6301309;22;45709;-73
2023/06/01 07:19:08;;;;;;;;;20.25;13.75;;;;;27.21;37.30;101926.53;6300102;22;45348;-74
2023/06/01 07:21:33;;;;;;;;;29.50;15.25;;;;;27.28;37.50;101922.06;6302168;22;45919;-74
2023/06/01 07:23:59;;;;;;;;;24.50;15.75;;;;;27.33;36.67;101924.16;6300644;22;45564;-75
2023/06/01 07:26:26;;;;;;;;;23.00;16.00;;;;;27.38;36.84;101927.94;6301066;22;46485;-73
2023/06/01 07:28:53;;;;;;;;;20.50;15.75;;;;;27.45;37.64;101924.50;6300028;22;45365;-73
2023/06/01 07:31:19;;;;;;;;;16.67;14.00;;;;;27.55;37.12;101948.25;6301195;22;45371;-74
2023/06/01 07:33:44;;;;;;;;;16.25;14.75;;;;;27.43;37.08;101921.22;6301534;22;45463;-72
2023/06/01 07:36:10;;;;;;;;;24.00;15.00;;;;;27.61;37.03;101952.81;6301548;22;45491;-73
2023/06/01 07:38:35;;;;;;;;;23.50;16.75;;;;;27.67;36.83;101945.88;6301447;22;45364;-73
2023/06/01 07:41:01;;;;;;;;;21.50;16.75;;;;;27.66;37.46;101933.53;6300936;22;45307;-74
2023/06/01 07:43:26;;;;;;;;;22.67;15.33;;;;;27.69;37.36;101939.31;6300459;22;45392;-73
2023/06/01 07:45:52;;;;;;;;;16.67;13.00;;;;;27.75;37.11;101951.06;6301438;22;45446;-71
2023/06/01 07:48:17;;;;;;;;;20.33;15.67;;;;;27.74;37.32;101938.72;6301392;22;45399;-71
2023/06/01 07:50:43;;;;;;;;;25.00;17.67;;;;;27.76;37.15;101939.38;6301613;22;45463;-73
2023/06/01 07:53:09;;;;;;;;;23.25;13.75;;;;;27.84;37.55;101946.47;6300490;22;45330;-73
2023/06/01 07:55:34;;;;;;;;;17.50;14.75;;;;;27.88;37.04;101947.72;6300964;22;45494;-73
2023/06/01 07:57:59;;;;;;;;;22.50;16.75;;;;;27.93;37.54;101955.16;6300908;22;45304;-74
2023/06/01 08:00:26;;;;;;;;;19.75;14.00;;;;;27.95;37.00;101953.94;6299689;22;45239;-74
2023/06/01 08:02:52;;;;;;;;;19.67;13.67;;;;;27.99;37.38;101951.72;6301089;22;45383;-75
2023/06/01 08:05:18;;;;;;;;;14.00;11.00;;;;;27.98;38.18;101939.34;6300163;22;45730;-74
2023/06/01 08:07:45;;;;;;;;;18.25;13.25;;;;;28.04;37.91;101948.44;6301276;22;45308;-73
2023/06/01 08:10:12;;;;;;;;;18.33;13.67;;;;;28.01;37.42;101927.44;6300796;22;45440;-74
2023/06/01 08:12:37;;;;;;;;;19.25;14.50;;;;;28.04;37.95;101943.94;6300960;22;45412;-74
2023/06/01 08:15:04;;;;;;;;;19.75;13.75;;;;;28.10;37.70;101936.16;6301037;22;45777;-74
2023/06/01 08:17:29;;;;;;;;;18.33;13.33;;;;;28.11;38.01;101946.66;6300689;22;45349;-72
2023/06/01 08:19:56;;;;;;;;;20.00;15.00;;;;;28.12;37.91;101944.81;6300814;22;45389;-72
2023/06/01 08:22:27;;;;;;;;;18.00;13.25;;;;;28.13;37.59;101941.91;6300935;22;45498;-73
2023/06/01 08:24:52;;;;;;;;;19.00;14.67;;;;;28.13;37.74;101936.56;6300808;22;45427;-73
2023/06/01 08:27:23;;;;;;;;;23.33;14.00;;;;;28.19;37.78;101945.66;6300943;22;45413;-73
2023/06/01 08:29:49;;;;;;;;;16.67;12.00;;;;;28.21;37.71;101937.47;6301085;22;45139;-73
2023/06/01 08:32:16;;;;;;;;;19.67;17.67;;;;;28.21;38.12;101932.91;6301170;22;45501;-73
2023/06/01 08:34:46;;;;;;;;;18.33;13.67;;;;;28.17;37.93;101937.00;6298233;22;47542;-72
2023/06/01 08:37:13;;;;;;;;;15.00;12.33;;;;;28.25;38.02;101944.06;6300772;22;45284;-73
2023/06/01 08:39:39;;;;;;;;;21.25;14.75;;;;;28.18;38.25;101936.81;6301078;22;45613;-73
2023/06/01 08:42:36;;;;;;;;;19.50;16.25;;;;;28.27;38.23;101950.03;6300714;22;45288;-73
2023/06/01 08:45:05;;;;;;;;;15.67;13.33;;;;;28.27;38.96;101937.50;6175005;23;45675;-74
2023/06/01 08:47:31;;;;;;;;;18.00;16.33;;;;;28.28;38.52;101944.50;6175172;23;45532;-73
2023/06/01 08:49:59;;;;;;;;;18.00;15.00;;;;;28.29;38.44;101932.75;6174364;23;45510;-73
2023/06/01 08:52:28;;;;;;;;;17.00;11.67;;;;;28.26;38.49;101935.81;6175374;23;45482;-73
2023/06/01 08:54:54;;;;;;;;;17.33;13.33;;;;;28.29;38.35;101934.59;6173717;23;46260;-72
2023/06/01 08:57:20;;;;;;;;;22.25;16.00;;;;;28.31;38.57;101937.09;6174502;23;45425;-74
2023/06/01 08:59:46;;;;;;;;;23.50;16.00;;;;;28.33;38.49;101933.22;6175544;23;45251;-72
2023/06/01 09:02:12;;;;;;;;;27.33;16.67;;;;;28.34;38.63;101931.38;6175324;23;45715;-73
2023/06/01 09:04:42;;;;;;;;;29.00;16.00;;;;;28.36;38.88;101942.69;6149655;23;46535;-72
2023/06/01 09:07:07;;;;;;;;;19.75;15.75;;;;;28.26;38.45;101911.75;6175130;23;45327;-72
2023/06/01 09:09:33;;;;;;;;;13.50;12.00;;;;;28.35;39.10;101930.31;6175273;23;45434;-72
2023/06/01 09:12:20;;;;;;;;;19.33;14.67;;;;;28.37;38.62;101910.38;6174416;23;45531;-72
2023/06/01 09:14:46;;;;;;;;;18.50;14.50;;;;;28.37;38.11;101918.41;6176176;23;45256;-73
2023/06/01 09:17:21;;;;;;;;;17.67;13.67;;;;;28.32;38.35;101899.44;6174375;23;45376;-72
2023/06/01 09:19:47;;;;;;;;;19.00;15.00;;;;;28.33;38.36;101909.13;6192345;22;45337;-73
2023/06/01 09:22:13;;;;;;;;;19.00;14.00;;;;;28.38;37.99;101922.75;6300707;22;45280;-73
2023/06/01 09:24:40;;;;;;;;;22.00;14.33;;;;;28.31;38.22;101897.78;6300691;22;47255;-72
2023/06/01 09:27:06;;;;;;;;;16.33;13.33;;;;;28.38;38.09;101895.13;6300727;22;45395;-73
2023/06/01 09:29:32;;;;;;;;;17.67;13.67;;;;;28.35;38.05;101891.00;6301265;22;45311;-73
2023/06/01 09:31:59;;;;;;;;;19.00;14.67;;;;;28.40;38.27;101906.47;6299098;22;45519;-72
2023/06/01 09:34:25;;;;;;;;;23.33;15.67;;;;;28.35;38.45;101904.41;6301093;22;45529;-74
2023/06/01 09:36:53;;;;;;;;;18.67;10.00;;;;;28.39;38.65;101904.84;6300596;22;45355;-73
2023/06/01 09:39:23;;;;;;;;;22.25;14.75;;;;;28.36;38.59;101881.97;6300457;22;45455;-75
2023/06/01 09:41:54;;;;;;;;;23.00;14.00;;;;;28.38;37.98;101898.66;6300702;22;45690;-76
2023/06/01 09:44:29;;;;;;;;;16.67;14.33;;;;;28.39;38.34;101891.44;6301112;22;46070;-75
2023/06/01 09:47:02;;;;;;;;;15.00;14.00;;;;;28.38;38.52;101897.81;6300342;22;45256;-74
2023/06/01 09:49:32;;;;;;;;;17.00;13.50;;;;;28.37;37.83;101890.81;6300999;22;45324;-74
2023/06/01 09:52:04;;;;;;;;;15.00;12.50;;;;;28.39;38.01;101891.44;6298572;22;45466;-73
2023/06/01 09:54:33;;;;;;;;;13.67;12.67;;;;;28.32;37.88;101867.31;6300091;22;45655;-74
2023/06/01 09:57:00;;;;;;;;;18.00;16.25;;;;;28.36;38.60;101879.28;6300533;22;45550;-73
2023/06/01 09:59:28;;;;;;;;;16.33;12.67;;;;;28.38;38.48;101876.41;6300621;22;45282;-73
2023/06/01 10:01:57;;;;;;;;;22.33;15.33;;;;;28.36;38.40;101889.16;6300135;22;45673;-75
2023/06/01 10:04:26;;;;;;;;;16.33;15.33;;;;;28.36;38.33;101879.28;6300516;22;45924;-73
2023/06/01 10:06:54;;;;;;;;;21.50;15.75;;;;;28.37;39.10;101883.59;6299381;22;45170;-73
2023/06/01 10:09:20;;;;;;;;;16.00;12.00;;;;;28.33;38.99;101882.38;6299808;22;45436;-75
2023/06/01 10:11:48;;;;;;;;;12.67;11.33;;;;;28.34;38.71;101875.16;6300231;22;45664;-77
2023/06/01 10:14:15;;;;;;;;;15.67;13.67;;;;;28.30;38.32;101864.03;6297951;22;45803;-75
2023/06/01 10:16:41;;;;;;;;;16.67;14.67;;;;;28.36;38.12;101891.84;6299556;22;45265;-74
2023/06/01 10:19:11;;;;;;;;;14.00;10.67;;;;;28.36;37.73;101891.84;6298185;22;45708;-73
2023/06/01 10:21:39;;;;;;;;;16.67;13.33;;;;;28.29;37.76;101878.41;6299066;22;45453;-72
2023/06/01 10:24:07;;;;;;;;;16.33;14.67;;;;;28.31;37.02;101876.38;6298090;22;46826;-73
2023/06/01 10:26:43;;;;;;;;;13.00;11.67;;;;;28.24;37.17;101862.13;6299290;22;45484;-74
2023/06/01 10:29:09;;;;;;;;;16.33;13.00;;;;;28.24;36.49;101878.19;6298786;22;45197;-77
2023/06/01 10:31:37;;;;;;;;;12.00;12.00;;;;;28.22;36.25;101873.03;6299252;22;45379;-77
2023/06/01 10:34:04;;;;;;;;;14.00;13.67;;;;;28.16;35.93;101865.78;6298319;22;46161;-78
2023/06/01 10:36:51;;;;;;;;;12.33;12.00;;;;;28.16;36.27;101869.31;6300325;22;45407;-79
2023/06/01 10:39:27;;;;;;;;;15.33;12.00;;;;;28.13;36.27;101859.00;6300622;22;45712;-77
2023/06/01 10:41:55;;;;;;;;;11.33;10.33;;;;;28.09;36.28;101841.69;6300531;22;45383;-75
2023/06/01 10:44:44;;;;;;;;;14.33;11.00;;;;;28.09;36.51;101849.72;6299523;22;45768;-75
2023/06/01 10:47:12;;;;;;;;;9.00;9.00;;;;;28.08;36.45;101848.06;6283182;22;45328;-75
2023/06/01 10:49:46;;;;;;;;;10.67;10.67;;;;;28.08;36.59;101869.44;6300744;22;45255;-75
2023/06/01 10:52:40;;;;;;;;;10.33;10.33;;;;;28.05;36.38;101854.63;6300122;22;45340;-74
2023/06/01 10:55:11;;;;;;;;;11.33;10.00;;;;;28.07;36.53;101859.78;6295185;22;45329;-75
2023/06/01 10:57:45;;;;;;;;;11.67;11.00;;;;;28.02;36.27;101851.53;6300031;22;45309;-74
2023/06/01 11:00:22;;;;;;;;;11.67;11.67;;;;;28.01;35.94;101839.16;6301505;22;45712;-75
2023/06/01 11:02:57;;;;;;;;;14.33;14.00;;;;;27.97;35.86;101862.81;6300102;22;45394;-75
2023/06/01 11:05:43;;;;;;;;;15.67;13.00;;;;;28.00;36.04;101862.41;6299407;22;45444;-75
2023/06/01 11:08:29;;;;;;;;;18.00;13.67;;;;;27.98;35.80;101874.34;6300504;22;45344;-75
2023/06/01 11:10:59;;;;;;;;;13.00;12.67;;;;;27.81;35.92;101838.03;6300867;22;45323;-75